sensor_id;sensor_type;location;lat;lon;timestamp;P1;durP1;ratioP1;P2;durP2;ratioP2
58784;SDS011;44557;51.862;19.378;2023-01-28T00:00:19;31.90;;;18.80;;
58784;SDS011;44557;51.862;19.378;2023-01-28T00:02:41;35.60;;;20.00;;
58784;SDS011;44557;51.862;19.378;2023-01-28T00:04:43;32.30;;;19.40;;
58784;SDS011;44557;51.862;19.378;2023-01-28T00:06:44;35.60;;;20.10;;
58784;SDS011;44557;51.862;19.378;2023-01-28T00:08:47;30.10;;;18.80;;
58784;SDS011;44557;51.862;19.378;2023-01-28T00:10:48;29.50;;;18.20;;
58784;SDS011;44557;51.862;19.378;2023-01-28T00:12:50;33.60;;;20.00;;
58784;SDS011;44557;51.862;19.378;2023-01-28T00:14:51;32.10;;;18.90;;
58784;SDS011;44557;51.862;19.378;2023-01-28T00:16:53;33.20;;;19.10;;
58784;SDS011;44557;51.862;19.378;2023-01-28T00:18:54;34.30;;;19.90;;
58784;SDS011;44557;51.862;19.378;2023-01-28T00:21:04;31.50;;;18.70;;
58784;SDS011;44557;51.862;19.378;2023-01-28T00:23:16;32.80;;;19.50;;
58784;SDS011;44557;51.862;19.378;2023-01-28T00:25:17;31.30;;;19.00;;
58784;SDS011;44557;51.862;19.378;2023-01-28T00:27:20;31.30;;;19.70;;
58784;SDS011;44557;51.862;19.378;2023-01-28T00:29:21;33.40;;;19.70;;
58784;SDS011;44557;51.862;19.378;2023-01-28T00:31:24;32.60;;;20.10;;
58784;SDS011;44557;51.862;19.378;2023-01-28T00:33:27;31.10;;;18.00;;
58784;SDS011;44557;51.862;19.378;2023-01-28T00:35:29;30.70;;;18.80;;
58784;SDS011;44557;51.862;19.378;2023-01-28T00:37:31;31.20;;;19.30;;
58784;SDS011;44557;51.862;19.378;2023-01-28T00:39:32;32.80;;;19.40;;
58784;SDS011;44557;51.862;19.378;2023-01-28T00:41:34;30.60;;;18.00;;
58784;SDS011;44557;51.862;19.378;2023-01-28T00:43:38;31.60;;;18.80;;
58784;SDS011;44557;51.862;19.378;2023-01-28T00:45:41;31.30;;;18.50;;
58784;SDS011;44557;51.862;19.378;2023-01-28T00:47:42;32.80;;;19.30;;
58784;SDS011;44557;51.862;19.378;2023-01-28T00:49:45;31.20;;;18.90;;
58784;SDS011;44557;51.862;19.378;2023-01-28T00:51:46;30.80;;;19.10;;
58784;SDS011;44557;51.862;19.378;2023-01-28T00:53:49;30.60;;;19.10;;
58784;SDS011;44557;51.862;19.378;2023-01-28T00:55:50;29.80;;;17.90;;
58784;SDS011;44557;51.862;19.378;2023-01-28T00:57:53;29.30;;;18.60;;
58784;SDS011;44557;51.862;19.378;2023-01-28T00:59:54;30.80;;;18.50;;
58784;SDS011;44557;51.862;19.378;2023-01-28T01:01:56;30.70;;;18.30;;
58784;SDS011;44557;51.862;19.378;2023-01-28T01:04:12;28.50;;;16.90;;
58784;SDS011;44557;51.862;19.378;2023-01-28T01:06:14;32.40;;;18.40;;
58784;SDS011;44557;51.862;19.378;2023-01-28T01:08:16;29.20;;;18.70;;
58784;SDS011;44557;51.862;19.378;2023-01-28T01:10:18;28.30;;;17.30;;
58784;SDS011;44557;51.862;19.378;2023-01-28T01:12:20;30.90;;;17.70;;
58784;SDS011;44557;51.862;19.378;2023-01-28T01:14:21;30.00;;;17.90;;
58784;SDS011;44557;51.862;19.378;2023-01-28T01:16:25;30.20;;;18.40;;
58784;SDS011;44557;51.862;19.378;2023-01-28T01:18:28;29.50;;;18.00;;
58784;SDS011;44557;51.862;19.378;2023-01-28T01:20:29;28.70;;;17.10;;
58784;SDS011;44557;51.862;19.378;2023-01-28T01:22:34;26.40;;;17.40;;
58784;SDS011;44557;51.862;19.378;2023-01-28T01:24:37;26.60;;;15.80;;
58784;SDS011;44557;51.862;19.378;2023-01-28T01:26:38;26.40;;;16.90;;
58784;SDS011;44557;51.862;19.378;2023-01-28T01:28:40;24.00;;;15.20;;
58784;SDS011;44557;51.862;19.378;2023-01-28T01:30:42;26.90;;;17.00;;
58784;SDS011;44557;51.862;19.378;2023-01-28T01:32:43;25.40;;;16.60;;
58784;SDS011;44557;51.862;19.378;2023-01-28T01:34:45;25.40;;;16.00;;
58784;SDS011;44557;51.862;19.378;2023-01-28T01:36:47;26.00;;;16.00;;
58784;SDS011;44557;51.862;19.378;2023-01-28T01:38:51;23.00;;;16.00;;
58784;SDS011;44557;51.862;19.378;2023-01-28T01:40:55;27.10;;;17.00;;
58784;SDS011;44557;51.862;19.378;2023-01-28T01:43:00;27.10;;;17.20;;
58784;SDS011;44557;51.862;19.378;2023-01-28T01:47:07;23.70;;;15.50;;
58784;SDS011;44557;51.862;19.378;2023-01-28T01:49:20;23.70;;;15.50;;
58784;SDS011;44557;51.862;19.378;2023-01-28T01:51:30;23.00;;;14.00;;
58784;SDS011;44557;51.862;19.378;2023-01-28T01:53:35;25.20;;;16.40;;
58784;SDS011;44557;51.862;19.378;2023-01-28T01:55:42;23.50;;;14.90;;
58784;SDS011;44557;51.862;19.378;2023-01-28T01:57:47;25.20;;;15.10;;
58784;SDS011;44557;51.862;19.378;2023-01-28T01:59:51;24.80;;;15.50;;
58784;SDS011;44557;51.862;19.378;2023-01-28T02:01:54;22.90;;;15.40;;
58784;SDS011;44557;51.862;19.378;2023-01-28T02:04:00;23.90;;;15.90;;
58784;SDS011;44557;51.862;19.378;2023-01-28T02:06:06;24.60;;;15.90;;
58784;SDS011;44557;51.862;19.378;2023-01-28T02:08:09;23.90;;;16.10;;
58784;SDS011;44557;51.862;19.378;2023-01-28T02:10:23;24.70;;;14.70;;
58784;SDS011;44557;51.862;19.378;2023-01-28T02:12:29;25.00;;;15.40;;
58784;SDS011;44557;51.862;19.378;2023-01-28T02:14:36;24.80;;;15.80;;
58784;SDS011;44557;51.862;19.378;2023-01-28T02:16:42;24.80;;;14.90;;
58784;SDS011;44557;51.862;19.378;2023-01-28T02:18:44;25.30;;;14.90;;
58784;SDS011;44557;51.862;19.378;2023-01-28T02:33:33;24.10;;;13.90;;
58784;SDS011;44557;51.862;19.378;2023-01-28T02:35:47;22.80;;;14.90;;
58784;SDS011;44557;51.862;19.378;2023-01-28T02:37:55;26.10;;;14.90;;
58784;SDS011;44557;51.862;19.378;2023-01-28T02:40:33;25.70;;;15.90;;
58784;SDS011;44557;51.862;19.378;2023-01-28T02:42:56;25.50;;;15.00;;
58784;SDS011;44557;51.862;19.378;2023-01-28T02:44:58;25.30;;;15.70;;
58784;SDS011;44557;51.862;19.378;2023-01-28T02:47:00;25.10;;;15.30;;
58784;SDS011;44557;51.862;19.378;2023-01-28T02:51:32;23.80;;;15.20;;
58784;SDS011;44557;51.862;19.378;2023-01-28T02:53:46;22.10;;;14.20;;
58784;SDS011;44557;51.862;19.378;2023-01-28T02:56:06;24.10;;;15.30;;
58784;SDS011;44557;51.862;19.378;2023-01-28T02:58:25;25.00;;;15.70;;
58784;SDS011;44557;51.862;19.378;2023-01-28T03:00:45;25.50;;;16.30;;
58784;SDS011;44557;51.862;19.378;2023-01-28T03:07:23;24.80;;;15.40;;
58784;SDS011;44557;51.862;19.378;2023-01-28T03:09:27;25.10;;;15.30;;
58784;SDS011;44557;51.862;19.378;2023-01-28T03:11:32;24.10;;;15.30;;
58784;SDS011;44557;51.862;19.378;2023-01-28T03:13:58;24.80;;;15.20;;
58784;SDS011;44557;51.862;19.378;2023-01-28T03:16:19;21.90;;;13.70;;
58784;SDS011;44557;51.862;19.378;2023-01-28T03:18:40;22.70;;;14.60;;
58784;SDS011;44557;51.862;19.378;2023-01-28T03:21:06;21.90;;;14.00;;
58784;SDS011;44557;51.862;19.378;2023-01-28T03:23:38;21.50;;;13.80;;
58784;SDS011;44557;51.862;19.378;2023-01-28T03:26:06;20.30;;;13.50;;
58784;SDS011;44557;51.862;19.378;2023-01-28T03:28:30;20.60;;;13.00;;
58784;SDS011;44557;51.862;19.378;2023-01-28T03:30:56;17.60;;;11.60;;
58784;SDS011;44557;51.862;19.378;2023-01-28T03:33:22;15.40;;;11.20;;
58784;SDS011;44557;51.862;19.378;2023-01-28T03:35:43;18.40;;;12.40;;
58784;SDS011;44557;51.862;19.378;2023-01-28T03:38:05;19.40;;;12.60;;
58784;SDS011;44557;51.862;19.378;2023-01-28T03:40:21;19.90;;;13.30;;
58784;SDS011;44557;51.862;19.378;2023-01-28T03:42:23;20.90;;;12.10;;
58784;SDS011;44557;51.862;19.378;2023-01-28T03:44:24;21.00;;;13.00;;
58784;SDS011;44557;51.862;19.378;2023-01-28T03:46:45;22.70;;;13.40;;
58784;SDS011;44557;51.862;19.378;2023-01-28T03:48:47;24.20;;;15.40;;
58784;SDS011;44557;51.862;19.378;2023-01-28T03:50:49;22.70;;;14.90;;
58784;SDS011;44557;51.862;19.378;2023-01-28T03:52:52;23.20;;;14.50;;
58784;SDS011;44557;51.862;19.378;2023-01-28T03:54:54;22.70;;;13.60;;
58784;SDS011;44557;51.862;19.378;2023-01-28T03:56:56;20.80;;;14.30;;
58784;SDS011;44557;51.862;19.378;2023-01-28T03:58:57;20.60;;;14.20;;
58784;SDS011;44557;51.862;19.378;2023-01-28T04:00:59;19.60;;;12.80;;
58784;SDS011;44557;51.862;19.378;2023-01-28T04:03:01;20.70;;;12.40;;
58784;SDS011;44557;51.862;19.378;2023-01-28T04:05:03;18.80;;;11.70;;
58784;SDS011;44557;51.862;19.378;2023-01-28T04:07:08;18.50;;;12.30;;
58784;SDS011;44557;51.862;19.378;2023-01-28T04:09:10;18.60;;;12.50;;
58784;SDS011;44557;51.862;19.378;2023-01-28T04:11:12;20.50;;;12.40;;
58784;SDS011;44557;51.862;19.378;2023-01-28T04:13:16;19.50;;;12.90;;
58784;SDS011;44557;51.862;19.378;2023-01-28T04:15:21;19.50;;;13.30;;
58784;SDS011;44557;51.862;19.378;2023-01-28T04:17:24;19.70;;;13.40;;
58784;SDS011;44557;51.862;19.378;2023-01-28T04:19:25;20.50;;;13.50;;
58784;SDS011;44557;51.862;19.378;2023-01-28T04:21:28;21.60;;;13.00;;
58784;SDS011;44557;51.862;19.378;2023-01-28T04:23:30;23.80;;;14.50;;
58784;SDS011;44557;51.862;19.378;2023-01-28T04:25:33;22.30;;;14.20;;
58784;SDS011;44557;51.862;19.378;2023-01-28T04:27:34;23.30;;;14.00;;
58784;SDS011;44557;51.862;19.378;2023-01-28T04:29:36;24.50;;;14.50;;
58784;SDS011;44557;51.862;19.378;2023-01-28T04:31:38;20.20;;;13.20;;
58784;SDS011;44557;51.862;19.378;2023-01-28T04:33:39;21.60;;;13.50;;
58784;SDS011;44557;51.862;19.378;2023-01-28T04:35:41;21.40;;;13.50;;
58784;SDS011;44557;51.862;19.378;2023-01-28T04:37:42;22.70;;;13.40;;
58784;SDS011;44557;51.862;19.378;2023-01-28T04:39:45;22.20;;;14.00;;
58784;SDS011;44557;51.862;19.378;2023-01-28T04:41:46;23.90;;;14.60;;
58784;SDS011;44557;51.862;19.378;2023-01-28T04:43:48;24.40;;;13.60;;
58784;SDS011;44557;51.862;19.378;2023-01-28T04:45:49;20.60;;;13.30;;
58784;SDS011;44557;51.862;19.378;2023-01-28T04:47:51;23.40;;;12.90;;
58784;SDS011;44557;51.862;19.378;2023-01-28T04:49:53;25.00;;;14.10;;
58784;SDS011;44557;51.862;19.378;2023-01-28T04:51:54;25.40;;;15.00;;
58784;SDS011;44557;51.862;19.378;2023-01-28T04:53:56;20.90;;;12.70;;
58784;SDS011;44557;51.862;19.378;2023-01-28T04:55:57;21.90;;;14.10;;
58784;SDS011;44557;51.862;19.378;2023-01-28T04:57:59;25.30;;;16.00;;
58784;SDS011;44557;51.862;19.378;2023-01-28T05:00:01;26.10;;;14.90;;
58784;SDS011;44557;51.862;19.378;2023-01-28T05:02:05;24.40;;;15.00;;
58784;SDS011;44557;51.862;19.378;2023-01-28T05:04:07;24.70;;;15.80;;
58784;SDS011;44557;51.862;19.378;2023-01-28T05:06:09;24.20;;;15.00;;
58784;SDS011;44557;51.862;19.378;2023-01-28T05:08:11;25.30;;;15.60;;
58784;SDS011;44557;51.862;19.378;2023-01-28T05:10:13;24.30;;;15.60;;
58784;SDS011;44557;51.862;19.378;2023-01-28T05:12:14;26.40;;;16.20;;
58784;SDS011;44557;51.862;19.378;2023-01-28T05:14:16;23.60;;;14.70;;
58784;SDS011;44557;51.862;19.378;2023-01-28T05:16:17;25.10;;;14.90;;
58784;SDS011;44557;51.862;19.378;2023-01-28T05:18:19;25.50;;;14.60;;
58784;SDS011;44557;51.862;19.378;2023-01-28T05:20:20;25.00;;;14.80;;
58784;SDS011;44557;51.862;19.378;2023-01-28T05:22:22;25.30;;;14.40;;
58784;SDS011;44557;51.862;19.378;2023-01-28T05:24:23;26.00;;;16.10;;
58784;SDS011;44557;51.862;19.378;2023-01-28T05:26:25;26.30;;;15.80;;
58784;SDS011;44557;51.862;19.378;2023-01-28T05:28:27;31.20;;;16.30;;
58784;SDS011;44557;51.862;19.378;2023-01-28T05:30:29;28.20;;;16.20;;
58784;SDS011;44557;51.862;19.378;2023-01-28T05:32:31;26.30;;;16.70;;
58784;SDS011;44557;51.862;19.378;2023-01-28T05:34:32;27.20;;;15.50;;
58784;SDS011;44557;51.862;19.378;2023-01-28T05:36:34;28.10;;;16.70;;
58784;SDS011;44557;51.862;19.378;2023-01-28T05:38:35;27.80;;;16.70;;
58784;SDS011;44557;51.862;19.378;2023-01-28T05:40:37;29.50;;;16.50;;
58784;SDS011;44557;51.862;19.378;2023-01-28T05:42:38;29.40;;;16.70;;
58784;SDS011;44557;51.862;19.378;2023-01-28T05:44:40;27.50;;;17.10;;
58784;SDS011;44557;51.862;19.378;2023-01-28T05:46:42;28.30;;;17.00;;
58784;SDS011;44557;51.862;19.378;2023-01-28T05:48:47;28.90;;;17.70;;
58784;SDS011;44557;51.862;19.378;2023-01-28T05:50:51;30.80;;;16.70;;
58784;SDS011;44557;51.862;19.378;2023-01-28T05:52:52;31.10;;;16.70;;
58784;SDS011;44557;51.862;19.378;2023-01-28T05:54:54;28.10;;;16.50;;
58784;SDS011;44557;51.862;19.378;2023-01-28T05:56:55;27.30;;;16.40;;
58784;SDS011;44557;51.862;19.378;2023-01-28T05:58:57;25.80;;;16.50;;
58784;SDS011;44557;51.862;19.378;2023-01-28T06:00:58;27.40;;;15.90;;
58784;SDS011;44557;51.862;19.378;2023-01-28T06:03:00;27.30;;;16.90;;
58784;SDS011;44557;51.862;19.378;2023-01-28T06:05:02;31.00;;;16.90;;
58784;SDS011;44557;51.862;19.378;2023-01-28T06:07:03;25.80;;;16.60;;
58784;SDS011;44557;51.862;19.378;2023-01-28T06:09:05;29.40;;;16.90;;
58784;SDS011;44557;51.862;19.378;2023-01-28T06:11:07;28.30;;;16.80;;
58784;SDS011;44557;51.862;19.378;2023-01-28T06:13:10;28.90;;;17.20;;
58784;SDS011;44557;51.862;19.378;2023-01-28T06:15:12;31.70;;;17.70;;
58784;SDS011;44557;51.862;19.378;2023-01-28T06:17:13;31.20;;;18.00;;
58784;SDS011;44557;51.862;19.378;2023-01-28T06:19:15;26.80;;;15.80;;
58784;SDS011;44557;51.862;19.378;2023-01-28T06:21:17;28.40;;;17.40;;
58784;SDS011;44557;51.862;19.378;2023-01-28T06:23:18;28.80;;;15.20;;
58784;SDS011;44557;51.862;19.378;2023-01-28T06:25:20;27.70;;;15.10;;
58784;SDS011;44557;51.862;19.378;2023-01-28T06:27:22;29.10;;;15.50;;
58784;SDS011;44557;51.862;19.378;2023-01-28T06:29:23;27.10;;;16.30;;
58784;SDS011;44557;51.862;19.378;2023-01-28T06:31:25;26.50;;;15.80;;
58784;SDS011;44557;51.862;19.378;2023-01-28T06:33:27;26.40;;;16.80;;
58784;SDS011;44557;51.862;19.378;2023-01-28T06:35:29;26.70;;;16.60;;
58784;SDS011;44557;51.862;19.378;2023-01-28T06:37:31;27.30;;;17.30;;
58784;SDS011;44557;51.862;19.378;2023-01-28T06:39:32;28.70;;;17.50;;
58784;SDS011;44557;51.862;19.378;2023-01-28T06:41:34;28.30;;;17.20;;
58784;SDS011;44557;51.862;19.378;2023-01-28T06:43:35;28.30;;;16.80;;
58784;SDS011;44557;51.862;19.378;2023-01-28T06:45:37;29.10;;;16.40;;
58784;SDS011;44557;51.862;19.378;2023-01-28T06:47:39;27.40;;;16.50;;
58784;SDS011;44557;51.862;19.378;2023-01-28T06:49:40;28.60;;;16.60;;
58784;SDS011;44557;51.862;19.378;2023-01-28T06:51:42;30.30;;;17.80;;
58784;SDS011;44557;51.862;19.378;2023-01-28T06:53:43;32.10;;;17.70;;
58784;SDS011;44557;51.862;19.378;2023-01-28T06:55:45;29.90;;;18.20;;
58784;SDS011;44557;51.862;19.378;2023-01-28T06:57:46;29.40;;;18.80;;
58784;SDS011;44557;51.862;19.378;2023-01-28T06:59:48;29.90;;;19.00;;
58784;SDS011;44557;51.862;19.378;2023-01-28T07:01:50;28.20;;;18.40;;
58784;SDS011;44557;51.862;19.378;2023-01-28T07:03:51;32.20;;;19.20;;
58784;SDS011;44557;51.862;19.378;2023-01-28T07:05:53;30.50;;;18.50;;
58784;SDS011;44557;51.862;19.378;2023-01-28T07:07:55;27.50;;;18.40;;
58784;SDS011;44557;51.862;19.378;2023-01-28T07:09:56;31.20;;;18.50;;
58784;SDS011;44557;51.862;19.378;2023-01-28T07:11:58;30.50;;;18.40;;
58784;SDS011;44557;51.862;19.378;2023-01-28T07:14:00;27.80;;;17.40;;
58784;SDS011;44557;51.862;19.378;2023-01-28T07:16:01;28.70;;;17.60;;
58784;SDS011;44557;51.862;19.378;2023-01-28T07:18:04;28.40;;;16.80;;
58784;SDS011;44557;51.862;19.378;2023-01-28T07:20:06;27.60;;;17.10;;
58784;SDS011;44557;51.862;19.378;2023-01-28T07:22:09;31.50;;;18.70;;
58784;SDS011;44557;51.862;19.378;2023-01-28T07:24:10;32.30;;;18.50;;
58784;SDS011;44557;51.862;19.378;2023-01-28T07:26:12;32.30;;;18.60;;
58784;SDS011;44557;51.862;19.378;2023-01-28T07:28:15;33.90;;;18.30;;
58784;SDS011;44557;51.862;19.378;2023-01-28T07:30:21;29.90;;;18.30;;
58784;SDS011;44557;51.862;19.378;2023-01-28T07:32:24;31.30;;;17.90;;
58784;SDS011;44557;51.862;19.378;2023-01-28T07:34:28;30.20;;;18.20;;
58784;SDS011;44557;51.862;19.378;2023-01-28T07:36:29;31.40;;;19.10;;
58784;SDS011;44557;51.862;19.378;2023-01-28T07:38:31;33.50;;;20.20;;
58784;SDS011;44557;51.862;19.378;2023-01-28T07:40:32;32.50;;;20.10;;
58784;SDS011;44557;51.862;19.378;2023-01-28T07:42:34;29.50;;;19.10;;
58784;SDS011;44557;51.862;19.378;2023-01-28T07:44:36;31.50;;;19.40;;
58784;SDS011;44557;51.862;19.378;2023-01-28T07:46:38;34.50;;;21.80;;
58784;SDS011;44557;51.862;19.378;2023-01-28T07:48:40;34.60;;;20.60;;
58784;SDS011;44557;51.862;19.378;2023-01-28T07:50:41;30.30;;;19.40;;
58784;SDS011;44557;51.862;19.378;2023-01-28T07:52:43;30.50;;;19.70;;
58784;SDS011;44557;51.862;19.378;2023-01-28T07:54:46;29.50;;;18.60;;
58784;SDS011;44557;51.862;19.378;2023-01-28T07:56:48;30.80;;;17.80;;
58784;SDS011;44557;51.862;19.378;2023-01-28T07:58:49;31.70;;;19.40;;
58784;SDS011;44557;51.862;19.378;2023-01-28T08:00:54;27.70;;;18.20;;
58784;SDS011;44557;51.862;19.378;2023-01-28T08:03:12;32.60;;;18.30;;
58784;SDS011;44557;51.862;19.378;2023-01-28T08:05:19;29.00;;;18.40;;
58784;SDS011;44557;51.862;19.378;2023-01-28T08:07:21;27.40;;;17.90;;
58784;SDS011;44557;51.862;19.378;2023-01-28T08:09:29;28.10;;;17.10;;
58784;SDS011;44557;51.862;19.378;2023-01-28T08:11:31;28.10;;;17.80;;
58784;SDS011;44557;51.862;19.378;2023-01-28T08:13:33;29.80;;;20.10;;
58784;SDS011;44557;51.862;19.378;2023-01-28T08:15:35;33.00;;;20.90;;
58784;SDS011;44557;51.862;19.378;2023-01-28T08:17:37;31.10;;;20.60;;
58784;SDS011;44557;51.862;19.378;2023-01-28T08:19:39;31.80;;;20.40;;
58784;SDS011;44557;51.862;19.378;2023-01-28T08:21:43;30.50;;;20.20;;
58784;SDS011;44557;51.862;19.378;2023-01-28T08:23:48;32.40;;;20.80;;
58784;SDS011;44557;51.862;19.378;2023-01-28T08:25:49;34.90;;;22.70;;
58784;SDS011;44557;51.862;19.378;2023-01-28T08:27:51;33.20;;;22.40;;
58784;SDS011;44557;51.862;19.378;2023-01-28T08:29:53;37.70;;;22.60;;
58784;SDS011;44557;51.862;19.378;2023-01-28T08:31:55;32.40;;;20.60;;
58784;SDS011;44557;51.862;19.378;2023-01-28T08:33:56;32.50;;;20.70;;
58784;SDS011;44557;51.862;19.378;2023-01-28T08:35:59;33.60;;;20.40;;
58784;SDS011;44557;51.862;19.378;2023-01-28T08:38:04;30.40;;;19.00;;
58784;SDS011;44557;51.862;19.378;2023-01-28T08:40:07;29.10;;;20.00;;
58784;SDS011;44557;51.862;19.378;2023-01-28T08:42:10;30.70;;;21.00;;
58784;SDS011;44557;51.862;19.378;2023-01-28T08:44:11;31.10;;;20.00;;
58784;SDS011;44557;51.862;19.378;2023-01-28T08:46:14;31.80;;;21.00;;
58784;SDS011;44557;51.862;19.378;2023-01-28T08:48:16;35.60;;;22.90;;
58784;SDS011;44557;51.862;19.378;2023-01-28T08:50:20;37.90;;;24.20;;
58784;SDS011;44557;51.862;19.378;2023-01-28T08:52:22;39.10;;;23.80;;
58784;SDS011;44557;51.862;19.378;2023-01-28T08:54:24;37.70;;;25.00;;
58784;SDS011;44557;51.862;19.378;2023-01-28T08:56:25;38.20;;;24.00;;
58784;SDS011;44557;51.862;19.378;2023-01-28T08:58:29;40.00;;;23.50;;
58784;SDS011;44557;51.862;19.378;2023-01-28T09:00:31;36.50;;;21.00;;
58784;SDS011;44557;51.862;19.378;2023-01-28T09:02:35;32.40;;;20.30;;
58784;SDS011;44557;51.862;19.378;2023-01-28T09:04:37;33.60;;;20.80;;
58784;SDS011;44557;51.862;19.378;2023-01-28T09:06:39;33.40;;;21.70;;
58784;SDS011;44557;51.862;19.378;2023-01-28T09:08:41;34.70;;;21.80;;
58784;SDS011;44557;51.862;19.378;2023-01-28T09:10:42;32.60;;;22.10;;
58784;SDS011;44557;51.862;19.378;2023-01-28T09:12:44;33.10;;;21.00;;
58784;SDS011;44557;51.862;19.378;2023-01-28T09:14:46;36.40;;;23.70;;
58784;SDS011;44557;51.862;19.378;2023-01-28T09:16:47;37.20;;;23.60;;
58784;SDS011;44557;51.862;19.378;2023-01-28T09:18:50;38.90;;;23.80;;
58784;SDS011;44557;51.862;19.378;2023-01-28T09:20:52;36.50;;;24.50;;
58784;SDS011;44557;51.862;19.378;2023-01-28T09:22:53;34.10;;;22.80;;
58784;SDS011;44557;51.862;19.378;2023-01-28T09:24:55;32.60;;;20.40;;
58784;SDS011;44557;51.862;19.378;2023-01-28T09:26:57;31.80;;;20.60;;
58784;SDS011;44557;51.862;19.378;2023-01-28T09:28:59;31.60;;;19.90;;
58784;SDS011;44557;51.862;19.378;2023-01-28T09:31:01;31.00;;;20.70;;
58784;SDS011;44557;51.862;19.378;2023-01-28T09:33:04;34.50;;;21.90;;
58784;SDS011;44557;51.862;19.378;2023-01-28T09:35:07;33.60;;;21.00;;
58784;SDS011;44557;51.862;19.378;2023-01-28T09:37:09;30.70;;;21.40;;
58784;SDS011;44557;51.862;19.378;2023-01-28T09:39:11;28.00;;;19.90;;
58784;SDS011;44557;51.862;19.378;2023-01-28T09:41:21;24.50;;;16.10;;
58784;SDS011;44557;51.862;19.378;2023-01-28T09:46:02;29.70;;;19.20;;
58784;SDS011;44557;51.862;19.378;2023-01-28T09:48:09;28.30;;;18.10;;
58784;SDS011;44557;51.862;19.378;2023-01-28T09:50:17;29.30;;;19.00;;
58784;SDS011;44557;51.862;19.378;2023-01-28T09:52:26;30.90;;;18.60;;
58784;SDS011;44557;51.862;19.378;2023-01-28T09:54:45;28.10;;;17.80;;
58784;SDS011;44557;51.862;19.378;2023-01-28T09:56:50;30.10;;;19.80;;
58784;SDS011;44557;51.862;19.378;2023-01-28T09:58:58;29.20;;;20.10;;
58784;SDS011;44557;51.862;19.378;2023-01-28T10:05:38;26.10;;;19.00;;
58784;SDS011;44557;51.862;19.378;2023-01-28T10:19:06;28.30;;;19.90;;
58784;SDS011;44557;51.862;19.378;2023-01-28T10:21:26;28.00;;;19.10;;
58784;SDS011;44557;51.862;19.378;2023-01-28T10:23:47;28.00;;;18.40;;
58784;SDS011;44557;51.862;19.378;2023-01-28T10:25:58;29.10;;;21.20;;
58784;SDS011;44557;51.862;19.378;2023-01-28T10:28:18;30.10;;;20.40;;
58784;SDS011;44557;51.862;19.378;2023-01-28T10:32:31;38.30;;;25.60;;
58784;SDS011;44557;51.862;19.378;2023-01-28T10:34:36;28.70;;;18.90;;
58784;SDS011;44557;51.862;19.378;2023-01-28T10:36:38;26.20;;;18.10;;
58784;SDS011;44557;51.862;19.378;2023-01-28T10:38:40;27.30;;;18.30;;
58784;SDS011;44557;51.862;19.378;2023-01-28T10:40:42;24.50;;;17.80;;
58784;SDS011;44557;51.862;19.378;2023-01-28T10:42:44;25.40;;;17.80;;
58784;SDS011;44557;51.862;19.378;2023-01-28T10:44:46;23.60;;;17.00;;
58784;SDS011;44557;51.862;19.378;2023-01-28T10:46:49;25.60;;;17.30;;
58784;SDS011;44557;51.862;19.378;2023-01-28T10:48:58;26.20;;;17.60;;
58784;SDS011;44557;51.862;19.378;2023-01-28T10:51:17;24.50;;;16.20;;
58784;SDS011;44557;51.862;19.378;2023-01-28T10:53:32;26.70;;;17.80;;
58784;SDS011;44557;51.862;19.378;2023-01-28T10:55:48;27.00;;;18.40;;
58784;SDS011;44557;51.862;19.378;2023-01-28T10:57:55;26.20;;;18.20;;
58784;SDS011;44557;51.862;19.378;2023-01-28T11:00:08;27.60;;;18.10;;
58784;SDS011;44557;51.862;19.378;2023-01-28T11:04:36;28.60;;;18.90;;
58784;SDS011;44557;51.862;19.378;2023-01-28T11:06:38;28.80;;;19.00;;
58784;SDS011;44557;51.862;19.378;2023-01-28T11:08:43;25.90;;;18.60;;
58784;SDS011;44557;51.862;19.378;2023-01-28T11:10:45;26.50;;;18.20;;
58784;SDS011;44557;51.862;19.378;2023-01-28T11:12:53;26.60;;;18.60;;
58784;SDS011;44557;51.862;19.378;2023-01-28T11:15:10;27.00;;;17.50;;
58784;SDS011;44557;51.862;19.378;2023-01-28T11:17:18;26.60;;;18.60;;
58784;SDS011;44557;51.862;19.378;2023-01-28T11:19:28;27.00;;;18.20;;
58784;SDS011;44557;51.862;19.378;2023-01-28T11:21:34;23.90;;;17.00;;
58784;SDS011;44557;51.862;19.378;2023-01-28T11:23:37;25.60;;;17.10;;
58784;SDS011;44557;51.862;19.378;2023-01-28T11:25:47;26.80;;;18.20;;
58784;SDS011;44557;51.862;19.378;2023-01-28T11:27:52;26.90;;;18.00;;
58784;SDS011;44557;51.862;19.378;2023-01-28T11:29:56;26.30;;;18.90;;
58784;SDS011;44557;51.862;19.378;2023-01-28T11:32:03;27.50;;;18.90;;
58784;SDS011;44557;51.862;19.378;2023-01-28T11:34:10;27.60;;;17.20;;
58784;SDS011;44557;51.862;19.378;2023-01-28T11:36:24;27.00;;;18.30;;
58784;SDS011;44557;51.862;19.378;2023-01-28T11:38:30;25.70;;;18.10;;
58784;SDS011;44557;51.862;19.378;2023-01-28T11:40:31;28.40;;;19.30;;
58784;SDS011;44557;51.862;19.378;2023-01-28T11:42:33;28.30;;;19.40;;
58784;SDS011;44557;51.862;19.378;2023-01-28T11:44:35;28.80;;;19.30;;
58784;SDS011;44557;51.862;19.378;2023-01-28T11:49:21;24.70;;;17.80;;
58784;SDS011;44557;51.862;19.378;2023-01-28T11:51:47;27.20;;;17.70;;
58784;SDS011;44557;51.862;19.378;2023-01-28T11:56:56;25.50;;;16.80;;
58784;SDS011;44557;51.862;19.378;2023-01-28T11:58:50;25.80;;;15.90;;
58784;SDS011;44557;51.862;19.378;2023-01-28T12:07:55;26.80;;;17.70;;
58784;SDS011;44557;51.862;19.378;2023-01-28T12:12:51;26.10;;;18.40;;
58784;SDS011;44557;51.862;19.378;2023-01-28T12:20:03;27.30;;;18.50;;
58784;SDS011;44557;51.862;19.378;2023-01-28T12:25:14;28.20;;;18.40;;
58784;SDS011;44557;51.862;19.378;2023-01-28T12:30:16;28.30;;;19.30;;
58784;SDS011;44557;51.862;19.378;2023-01-28T13:43:47;32.50;;;23.60;;
58784;SDS011;44557;51.862;19.378;2023-01-28T13:45:56;31.60;;;22.20;;
58784;SDS011;44557;51.862;19.378;2023-01-28T13:48:17;30.80;;;21.40;;
58784;SDS011;44557;51.862;19.378;2023-01-28T13:50:29;31.20;;;21.20;;
58784;SDS011;44557;51.862;19.378;2023-01-28T14:00:19;29.50;;;20.00;;
58784;SDS011;44557;51.862;19.378;2023-01-28T14:07:12;30.40;;;21.00;;
58784;SDS011;44557;51.862;19.378;2023-01-28T14:09:39;35.40;;;22.70;;
58784;SDS011;44557;51.862;19.378;2023-01-28T14:19:34;31.80;;;21.90;;
58784;SDS011;44557;51.862;19.378;2023-01-28T14:22:04;28.50;;;19.70;;
58784;SDS011;44557;51.862;19.378;2023-01-28T14:32:22;31.50;;;21.20;;
58784;SDS011;44557;51.862;19.378;2023-01-28T14:38:00;30.60;;;21.20;;
58784;SDS011;44557;51.862;19.378;2023-01-28T14:40:13;30.00;;;22.30;;
58784;SDS011;44557;51.862;19.378;2023-01-28T14:42:20;30.60;;;22.00;;
58784;SDS011;44557;51.862;19.378;2023-01-28T14:44:30;31.80;;;22.40;;
58784;SDS011;44557;51.862;19.378;2023-01-28T14:54:14;30.60;;;22.90;;
58784;SDS011;44557;51.862;19.378;2023-01-28T15:01:29;33.50;;;22.50;;
58784;SDS011;44557;51.862;19.378;2023-01-28T15:03:31;32.90;;;22.80;;
58784;SDS011;44557;51.862;19.378;2023-01-28T15:05:34;32.80;;;23.20;;
58784;SDS011;44557;51.862;19.378;2023-01-28T15:07:35;32.90;;;23.70;;